メインページ
METAR-TAF:

METAR-TAF

空港 :

カラカス, ベネズエラ

シモン・ボリバル国際空港

緯度: 10-36N, 経度: 066-59W, 海抜: 43m

現時点の気象観測

当レポートは35分前の22:00(UTC)に作成
北東の風 3kt
気温 31°C
湿度 59%
気圧 1010 hPa
視程10km以上
高度1600ftの雲は散在している

METAR: SVMI 262200Z 05003KT 9999 SCT016 31/22 Q1010

時間: 18:35 (22:35 UTC)

予報

当レポートは6時間35分前の16:00(UTC)に作成
予報は26日の 18時(UTC)から 27日の 18時(UTC)まで有効
北東の風 5kt
視程10km以上
高度1600ftの雲はほとんどない
26日の 18時(UTC)から 26日の 22時(UTC)まで徐々に
の風 10kt
高度1600ftの雲は散在している

TAF: SVMI 261600Z 2618/2718 05005KT 9999 FEW016 TX32/20Z TN26/10Z BECMG 2618/2622 09010KT SCT016

4,000以上の空港の気象観測と天気予報(METAR報とTAF報)

利用可能な観測所は地図上に黄色い丸と赤い丸で示す。

丸の上にカーソルを重ねると観測所名を参照できる。

次にクリックすると気象観測と天気予報を参照できる。

マップの切り替え:黒色「×」印の緑ボタンをクリックして拡大、「-」印の緑ボタンをクリックして縮小、緑色の三角印をクリックして隣りの地図に切り替え


METAR-TAF: